Time;durP1;ratioP1;P1;durP2;ratioP2;P2;SDS_P1;SDS_P2;PMS_P1;PMS_P2;Temp;Humidity;BMP_temperature;BMP_pressure;BME280_temperature;BME280_humidity;BME280_pressure;Samples;Min_cycle;Max_cycle;Signal;HPM_P1;HPM_P2
2023/12/04 00:00:03;;;;;;;27.48;17.00;;;0.30;99.90;;;;;;4876706;28;94810;-33
2023/12/04 00:02:29;;;;;;;24.83;13.23;;;0.30;99.90;;;;;;4877740;28;94720;-31
2023/12/04 00:04:55;;;;;;;20.95;13.95;;;0.30;99.90;;;;;;4877737;28;96090;-33
2023/12/04 00:07:20;;;;;;;18.77;14.32;;;0.30;99.90;;;;;;4878044;28;92659;-30
2023/12/04 00:09:46;;;;;;;22.35;12.55;;;0.30;99.90;;;;;;4876776;28;94631;-32
2023/12/04 00:12:11;;;;;;;25.13;13.88;;;0.30;99.90;;;;;;4878613;28;95106;-32
2023/12/04 00:14:37;;;;;;;20.20;12.57;;;0.30;99.90;;;;;;4881255;28;93786;-33
2023/12/04 00:17:03;;;;;;;28.48;13.52;;;0.30;99.90;;;;;;4880937;28;93394;-32
2023/12/04 00:19:28;;;;;;;25.75;14.35;;;0.30;99.90;;;;;;4880759;28;94884;-31
2023/12/04 00:21:54;;;;;;;24.10;13.05;;;0.30;99.90;;;;;;4881782;28;93870;-30
2023/12/04 00:24:19;;;;;;;19.20;13.02;;;0.30;99.90;;;;;;4894972;28;93183;-29
2023/12/04 00:26:45;;;;;;;17.85;11.80;;;0.30;99.90;;;;;;4881041;28;92190;-31
2023/12/04 00:29:11;;;;;;;24.63;13.35;;;0.30;99.90;;;;;;4878049;28;95723;-31
2023/12/04 00:31:36;;;;;;;24.70;12.82;;;0.30;99.90;;;;;;4878867;28;95398;-31
2023/12/04 00:34:02;;;;;;;20.90;12.25;;;0.30;99.90;;;;;;4880226;28;92953;-31
2023/12/04 00:36:28;;;;;;;18.88;12.77;;;0.30;99.90;;;;;;4881093;28;93655;-30
2023/12/04 00:38:53;;;;;;;19.10;12.07;;;0.20;99.90;;;;;;4880648;28;94870;-30
2023/12/04 00:41:19;;;;;;;20.85;12.15;;;0.30;99.90;;;;;;4880327;28;95137;-29
2023/12/04 00:43:44;;;;;;;23.60;12.13;;;0.30;99.90;;;;;;4880289;28;93269;-35
2023/12/04 00:46:10;;;;;;;19.50;12.63;;;0.30;99.90;;;;;;4880300;28;93555;-31
2023/12/04 00:48:36;;;;;;;26.70;14.38;;;0.20;99.90;;;;;;4880680;28;94805;-34
2023/12/04 00:51:02;;;;;;;21.70;12.40;;;0.30;99.90;;;;;;4880758;28;94504;-31
2023/12/04 00:53:27;;;;;;;18.08;14.18;;;0.30;99.90;;;;;;4867366;28;94584;-34
2023/12/04 00:55:53;;;;;;;23.15;13.13;;;0.30;99.90;;;;;;4881206;28;94278;-36
2023/12/04 00:58:18;;;;;;;22.35;14.32;;;0.30;99.90;;;;;;4879785;28;94574;-31
2023/12/04 01:00:44;;;;;;;26.88;14.85;;;0.30;99.90;;;;;;4895389;28;94477;-32
2023/12/04 01:03:09;;;;;;;26.50;15.77;;;0.30;99.90;;;;;;4879459;28;94389;-31
2023/12/04 01:05:35;;;;;;;20.65;13.10;;;0.30;99.90;;;;;;4880151;28;94373;-34
2023/12/04 01:08:01;;;;;;;24.70;15.48;;;0.30;99.90;;;;;;4879731;28;94745;-32
2023/12/04 01:10:26;;;;;;;24.08;13.10;;;0.30;99.90;;;;;;4880359;28;94675;-33
2023/12/04 01:12:52;;;;;;;28.15;13.38;;;0.30;99.90;;;;;;4880817;28;93488;-30
2023/12/04 01:15:17;;;;;;;18.27;12.15;;;0.30;99.90;;;;;;4880431;28;94593;-32
2023/12/04 01:17:43;;;;;;;22.55;12.13;;;0.30;99.90;;;;;;4879186;28;95285;-31
2023/12/04 01:20:09;;;;;;;22.23;14.18;;;0.30;99.90;;;;;;4879192;28;95421;-30
2023/12/04 01:22:34;;;;;;;19.95;13.50;;;0.30;99.90;;;;;;4875353;28;94001;-34
2023/12/04 01:25:00;;;;;;;23.17;12.55;;;0.30;99.90;;;;;;4861202;28;93828;-32
2023/12/04 01:27:26;;;;;;;21.63;13.38;;;0.30;99.90;;;;;;4877061;28;94870;-32
2023/12/04 01:29:51;;;;;;;23.60;12.90;;;0.30;99.90;;;;;;4880038;28;94674;-31
2023/12/04 01:32:17;;;;;;;18.55;14.02;;;0.30;99.90;;;;;;4877366;28;95871;-30
2023/12/04 01:34:42;;;;;;;25.38;13.02;;;0.30;99.90;;;;;;4879659;28;92927;-33
2023/12/04 01:37:08;;;;;;;23.40;14.10;;;0.30;99.90;;;;;;4877678;28;93466;-33
2023/12/04 01:39:34;;;;;;;18.45;11.80;;;0.30;99.90;;;;;;4878531;28;94519;-31
2023/12/04 01:41:59;;;;;;;19.90;11.15;;;0.30;99.90;;;;;;4877779;28;95870;-31
2023/12/04 01:44:25;;;;;;;21.58;14.02;;;0.30;99.90;;;;;;4878115;28;93498;-31
2023/12/04 01:46:51;;;;;;;24.02;14.55;;;0.30;99.90;;;;;;4878445;28;94656;-31
2023/12/04 01:49:17;;;;;;;22.40;12.88;;;0.30;99.90;;;;;;4878111;28;94660;-32
2023/12/04 01:51:43;;;;;;;24.42;11.88;;;0.30;99.90;;;;;;4878864;28;93166;-33
2023/12/04 01:54:09;;;;;;;22.45;13.35;;;0.30;99.90;;;;;;4878209;28;92300;-31
2023/12/04 01:56:37;;;;;;;25.33;14.25;;;0.30;99.90;;;;;;4877799;28;93703;-32
2023/12/04 01:59:03;;;;;;;18.95;11.27;;;0.30;99.90;;;;;;4878677;28;94392;-35
2023/12/04 02:01:30;;;;;;;19.95;12.40;;;0.40;99.90;;;;;;4878207;28;93901;-30
2023/12/04 02:03:57;;;;;;;22.85;12.07;;;0.40;99.90;;;;;;4877826;28;93358;-30
2023/12/04 02:06:23;;;;;;;21.67;12.88;;;0.30;99.90;;;;;;4877195;28;95632;-32
2023/12/04 02:08:48;;;;;;;22.23;12.60;;;0.30;99.90;;;;;;4878017;28;95557;-30
2023/12/04 02:11:14;;;;;;;20.77;10.35;;;0.40;99.90;;;;;;4878076;28;92392;-31
2023/12/04 02:13:40;;;;;;;28.60;13.13;;;0.30;99.90;;;;;;4877998;28;94335;-32
2023/12/04 02:16:10;;;;;;;22.85;14.30;;;0.40;99.90;;;;;;4864610;28;95260;-30
2023/12/04 02:18:36;;;;;;;14.55;9.73;;;0.30;99.90;;;;;;4878100;28;95079;-30
2023/12/04 02:21:02;;;;;;;22.08;10.75;;;0.30;99.90;;;;;;4878691;28;92204;-31
2023/12/04 02:23:28;;;;;;;20.90;12.75;;;0.30;99.90;;;;;;4878835;28;94442;-30
2023/12/04 02:26:01;;;;;;;17.50;12.15;;;0.30;99.90;;;;;;4876802;28;94786;-31
2023/12/04 02:28:32;;;;;;;18.45;11.55;;;0.30;99.90;;;;;;4877291;28;93988;-30
2023/12/04 02:30:59;;;;;;;21.88;12.02;;;0.40;99.90;;;;;;4837244;28;1168363;-31
2023/12/04 02:33:26;;;;;;;19.63;11.43;;;0.30;99.90;;;;;;4878257;28;93118;-32
2023/12/04 02:35:55;;;;;;;24.20;12.85;;;0.30;99.90;;;;;;4878933;28;94642;-29
2023/12/04 02:38:20;;;;;;;;;;;0.30;99.90;;;;;;4879028;28;93627;-32
2023/12/04 02:40:46;;;;;;;20.25;10.85;;;0.40;99.90;;;;;;4881016;28;93039;-33
2023/12/04 02:43:12;;;;;;;16.35;10.65;;;0.40;99.90;;;;;;4878290;28;92121;-33
2023/12/04 02:45:37;;;;;;;22.42;11.82;;;0.40;99.90;;;;;;4879039;28;93815;-31
2023/12/04 02:48:03;;;;;;;19.98;11.40;;;0.40;99.90;;;;;;4878477;28;95986;-32
2023/12/04 02:50:29;;;;;;;23.17;13.65;;;0.40;99.90;;;;;;4878951;28;92222;-30
2023/12/04 02:52:54;;;;;;;19.20;11.52;;;0.40;99.90;;;;;;4879178;28;92546;-33
2023/12/04 02:55:20;;;;;;;21.10;11.85;;;0.50;99.90;;;;;;4875457;28;95640;-32
2023/12/04 02:57:45;;;;;;;18.02;11.70;;;0.50;99.90;;;;;;4879356;28;95584;-32
2023/12/04 03:00:11;;;;;;;28.02;15.07;;;0.50;99.90;;;;;;4878447;28;93424;-32
2023/12/04 03:02:37;;;;;;;20.02;11.65;;;0.50;99.90;;;;;;4878938;28;94662;-31
2023/12/04 03:05:03;;;;;;;22.73;12.52;;;0.50;99.90;;;;;;4874330;28;95337;-33
2023/12/04 03:07:28;;;;;;;22.85;12.43;;;0.50;99.90;;;;;;4878333;28;94373;-35
2023/12/04 03:09:54;;;;;;;21.75;12.82;;;0.50;99.90;;;;;;4878326;28;92087;-30
2023/12/04 03:12:19;;;;;;;20.80;12.35;;;0.50;99.90;;;;;;4878823;28;93543;-29
2023/12/04 03:14:45;;;;;;;18.95;11.48;;;0.60;99.90;;;;;;4878627;28;93735;-30
2023/12/04 03:17:11;;;;;;;21.65;12.32;;;0.50;99.90;;;;;;4889967;28;94310;-34
2023/12/04 03:19:36;;;;;;;25.52;12.18;;;0.50;99.90;;;;;;4878938;28;93520;-31
2023/12/04 03:22:02;;;;;;;20.17;11.75;;;0.50;99.90;;;;;;4877831;28;94520;-31
2023/12/04 03:24:27;;;;;;;25.23;11.40;;;0.50;99.90;;;;;;4876368;28;95896;-34
2023/12/04 03:26:53;;;;;;;21.00;11.73;;;0.50;99.90;;;;;;4878228;28;94436;-33
2023/12/04 03:29:19;;;;;;;20.70;11.88;;;0.50;99.90;;;;;;4877923;28;93215;-33
2023/12/04 03:31:44;;;;;;;19.60;11.80;;;0.50;99.90;;;;;;4878105;28;93586;-31
2023/12/04 03:34:10;;;;;;;20.38;11.93;;;0.50;99.90;;;;;;4864436;28;94807;-32
2023/12/04 03:36:35;;;;;;;17.95;11.10;;;0.50;99.90;;;;;;4879048;28;94984;-31
2023/12/04 03:39:01;;;;;;;19.67;12.90;;;0.50;99.90;;;;;;4878282;28;92671;-30
2023/12/04 03:41:26;;;;;;;23.90;12.93;;;0.60;99.90;;;;;;4878018;28;93072;-33
2023/12/04 03:43:52;;;;;;;25.80;12.30;;;0.50;99.90;;;;;;4873486;28;96694;-30
2023/12/04 03:46:18;;;;;;;19.70;11.82;;;0.60;99.90;;;;;;4870079;28;96357;-31
2023/12/04 03:48:43;;;;;;;21.42;12.85;;;0.50;99.90;;;;;;4881470;28;92827;-31
2023/12/04 03:51:09;;;;;;;20.40;11.05;;;0.50;99.90;;;;;;4880836;28;92279;-32
2023/12/04 03:53:35;;;;;;;21.00;12.13;;;0.50;99.90;;;;;;4880364;28;95487;-33
2023/12/04 03:56:01;;;;;;;19.80;11.48;;;0.50;99.90;;;;;;4881013;28;94679;-31
2023/12/04 03:58:26;;;;;;;23.08;13.05;;;0.50;99.90;;;;;;4881107;28;94262;-30
2023/12/04 04:00:52;;;;;;;21.98;13.02;;;0.50;99.90;;;;;;4882480;28;91992;-30
2023/12/04 04:03:18;;;;;;;18.58;13.27;;;0.50;99.90;;;;;;4880351;28;96145;-31
2023/12/04 04:05:43;;;;;;;21.92;12.68;;;0.50;99.90;;;;;;4881587;28;95426;-32
2023/12/04 04:08:09;;;;;;;20.83;12.38;;;0.50;99.90;;;;;;4879912;28;94572;-33
2023/12/04 04:10:34;;;;;;;18.77;11.27;;;0.50;99.90;;;;;;4881174;28;94222;-33
2023/12/04 04:13:00;;;;;;;22.48;12.95;;;0.50;99.90;;;;;;4879845;28;94531;-33
2023/12/04 04:15:26;;;;;;;18.27;11.50;;;0.50;99.90;;;;;;4880862;28;94641;-33
2023/12/04 04:17:52;;;;;;;28.20;12.77;;;0.50;99.90;;;;;;4881386;28;94799;-34
2023/12/04 04:20:17;;;;;;;22.45;11.93;;;0.50;99.90;;;;;;4880966;28;93036;-32
2023/12/04 04:22:43;;;;;;;18.20;11.93;;;0.50;99.90;;;;;;4880446;28;95207;-32
2023/12/04 04:25:09;;;;;;;19.42;11.15;;;0.40;99.90;;;;;;4881111;28;94436;-31
2023/12/04 04:27:35;;;;;;;20.55;11.88;;;0.40;99.90;;;;;;4879763;28;94242;-31
2023/12/04 04:30:02;;;;;;;20.27;10.80;;;0.40;99.90;;;;;;4880776;28;94424;-31
2023/12/04 04:32:28;;;;;;;19.98;11.70;;;0.50;99.90;;;;;;4879461;28;96844;-32
2023/12/04 04:34:53;;;;;;;21.98;12.60;;;0.50;99.90;;;;;;4880607;28;95547;-30
2023/12/04 04:37:22;;;;;;;18.08;11.43;;;0.50;99.90;;;;;;4880905;28;92484;-32
2023/12/04 04:39:47;;;;;;;19.83;11.85;;;0.50;99.90;;;;;;4880679;28;93710;-32
2023/12/04 04:42:14;;;;;;;20.58;12.90;;;0.50;99.90;;;;;;4879263;28;94520;-31
2023/12/04 04:44:39;;;;;;;15.15;10.70;;;0.50;99.90;;;;;;4870864;28;94142;-33
2023/12/04 04:47:05;;;;;;;18.35;11.15;;;0.50;99.90;;;;;;4877554;28;94768;-30
2023/12/04 04:49:31;;;;;;;18.05;10.88;;;0.50;99.90;;;;;;4879598;28;91623;-31
2023/12/04 04:51:56;;;;;;;16.30;10.95;;;0.50;99.90;;;;;;4868127;28;94947;-33
2023/12/04 04:54:22;;;;;;;20.50;12.05;;;0.50;99.90;;;;;;4879817;28;94534;-31
2023/12/04 04:56:47;;;;;;;20.70;12.07;;;0.50;99.90;;;;;;4880069;28;95304;-30
2023/12/04 04:59:13;;;;;;;19.45;11.13;;;0.50;99.90;;;;;;4878775;28;93320;-30
2023/12/04 05:01:39;;;;;;;14.55;10.05;;;0.60;99.90;;;;;;4880156;28;94708;-32
2023/12/04 05:04:04;;;;;;;14.95;10.18;;;0.50;99.90;;;;;;4879234;28;94402;-30
2023/12/04 05:06:30;;;;;;;16.33;10.93;;;0.50;99.90;;;;;;4869578;28;94351;-33
2023/12/04 05:08:56;;;;;;;18.85;11.10;;;0.60;99.90;;;;;;4878672;28;92328;-32
2023/12/04 05:11:22;;;;;;;21.15;13.18;;;0.50;99.90;;;;;;4879334;28;95004;-33
2023/12/04 05:13:48;;;;;;;20.40;12.45;;;0.60;99.90;;;;;;4880640;28;94506;-31
2023/12/04 05:16:13;;;;;;;20.42;10.40;;;0.50;99.90;;;;;;4880013;28;94386;-31
2023/12/04 05:18:39;;;;;;;20.23;10.10;;;0.50;99.90;;;;;;4880668;28;93371;-33
2023/12/04 05:21:09;;;;;;;20.35;11.88;;;0.50;99.90;;;;;;4877191;28;95744;-34
2023/12/04 05:23:34;;;;;;;17.55;12.95;;;0.60;99.90;;;;;;4880279;28;95630;-31
2023/12/04 05:26:00;;;;;;;18.70;11.15;;;0.50;99.90;;;;;;4879664;28;95595;-33
2023/12/04 05:28:26;;;;;;;16.83;10.38;;;0.60;99.90;;;;;;4879975;28;93210;-33
2023/12/04 05:30:51;;;;;;;17.35;11.98;;;0.50;99.90;;;;;;4878303;28;94312;-31
2023/12/04 05:33:17;;;;;;;20.50;10.52;;;0.60;99.90;;;;;;4880129;28;94752;-32
2023/12/04 05:35:42;;;;;;;21.15;13.10;;;0.60;99.90;;;;;;4879284;28;93201;-32
2023/12/04 05:38:08;;;;;;;16.88;11.52;;;0.60;99.90;;;;;;4880034;28;92902;-33
2023/12/04 05:40:34;;;;;;;27.90;13.25;;;0.60;99.90;;;;;;4879184;28;94212;-33
2023/12/04 05:43:00;;;;;;;23.05;11.60;;;0.60;99.90;;;;;;4879695;28;94854;-30
2023/12/04 05:45:25;;;;;;;19.15;11.73;;;0.60;99.90;;;;;;4878958;28;93813;-30
2023/12/04 05:47:52;;;;;;;18.27;12.07;;;0.60;99.90;;;;;;4877982;28;93008;-31
2023/12/04 05:50:18;;;;;;;20.52;11.65;;;0.60;99.90;;;;;;4869668;28;94772;-33
2023/12/04 05:52:44;;;;;;;16.77;10.52;;;0.60;99.90;;;;;;4871040;28;94900;-30
2023/12/04 05:55:10;;;;;;;25.15;11.40;;;0.60;99.90;;;;;;4878323;28;94402;-33
2023/12/04 05:57:37;;;;;;;26.30;12.13;;;0.60;99.90;;;;;;4879900;28;93061;-33
2023/12/04 06:00:05;;;;;;;19.08;12.00;;;0.60;99.90;;;;;;4878160;28;94729;-31
2023/12/04 06:02:32;;;;;;;22.93;12.40;;;0.70;99.90;;;;;;4879090;28;94528;-30
2023/12/04 06:04:57;;;;;;;14.98;9.90;;;0.60;99.90;;;;;;4879144;28;94457;-32
2023/12/04 06:07:23;;;;;;;17.73;10.35;;;0.60;99.90;;;;;;4879373;28;94525;-31
2023/12/04 06:09:49;;;;;;;19.73;10.82;;;0.70;99.90;;;;;;4878001;28;95740;-33
2023/12/04 06:12:14;;;;;;;15.45;10.85;;;0.60;99.90;;;;;;4878741;28;95503;-31
2023/12/04 06:14:40;;;;;;;21.02;10.80;;;0.60;99.90;;;;;;4878444;28;93872;-32
2023/12/04 06:17:06;;;;;;;16.98;9.70;;;0.70;99.90;;;;;;4879025;28;94323;-31
2023/12/04 06:19:32;;;;;;;23.40;13.00;;;0.70;99.90;;;;;;4875215;28;94468;-31
2023/12/04 06:21:57;;;;;;;19.00;10.68;;;0.70;99.90;;;;;;4872974;28;95425;-30
2023/12/04 06:24:24;;;;;;;20.58;10.73;;;0.80;99.90;;;;;;4877421;28;92222;-31
2023/12/04 06:26:51;;;;;;;14.98;9.45;;;0.80;99.90;;;;;;4879418;28;92715;-31
2023/12/04 06:29:17;;;;;;;20.42;12.05;;;0.80;99.90;;;;;;4875817;28;95360;-32
2023/12/04 06:31:43;;;;;;;17.15;10.05;;;0.70;99.90;;;;;;4879126;28;94461;-32
2023/12/04 06:34:09;;;;;;;15.27;11.13;;;0.70;99.90;;;;;;4877885;28;95502;-31
2023/12/04 06:36:38;;;;;;;18.88;10.40;;;0.80;99.90;;;;;;4879231;28;94019;-33
2023/12/04 06:39:09;;;;;;;23.48;12.45;;;0.80;99.90;;;;;;4876961;28;94702;-32
2023/12/04 06:41:35;;;;;;;20.10;10.95;;;0.80;99.90;;;;;;4878842;28;94269;-30
2023/12/04 06:44:01;;;;;;;13.85;9.20;;;0.70;99.90;;;;;;4878714;28;96037;-31
2023/12/04 06:46:29;;;;;;;18.77;11.55;;;0.70;99.90;;;;;;4879125;28;92122;-32
2023/12/04 06:48:59;;;;;;;23.75;11.25;;;0.80;99.90;;;;;;4878085;28;93326;-31
2023/12/04 06:51:24;;;;;;;18.83;10.63;;;0.80;99.90;;;;;;4878420;28;94593;-31
2023/12/04 06:53:50;;;;;;;18.17;12.02;;;0.80;99.90;;;;;;4879035;28;93093;-31
2023/12/04 06:56:16;;;;;;;18.83;12.02;;;0.80;99.90;;;;;;4878163;28;92104;-31
2023/12/04 06:58:42;;;;;;;21.38;12.45;;;0.70;99.90;;;;;;4874438;28;96021;-32
2023/12/04 07:01:07;;;;;;;15.32;10.48;;;0.70;99.90;;;;;;4871959;28;95880;-31
2023/12/04 07:03:33;;;;;;;18.92;12.30;;;0.70;99.90;;;;;;4876361;28;92479;-31
2023/12/04 07:05:58;;;;;;;20.95;12.30;;;0.70;99.90;;;;;;4875389;28;94648;-34
2023/12/04 07:08:24;;;;;;;17.10;10.10;;;0.70;99.90;;;;;;4875076;28;94601;-34
2023/12/04 07:10:50;;;;;;;16.92;11.32;;;0.70;99.90;;;;;;4874981;28;94993;-32
2023/12/04 07:13:16;;;;;;;21.23;11.20;;;0.70;99.90;;;;;;4875188;28;93765;-31
2023/12/04 07:15:41;;;;;;;15.63;11.30;;;0.70;99.90;;;;;;4876234;28;92212;-31
2023/12/04 07:18:07;;;;;;;14.50;9.60;;;0.70;99.90;;;;;;4876226;28;94698;-33
2023/12/04 07:20:32;;;;;;;16.85;10.25;;;0.70;99.90;;;;;;4875885;28;93957;-32
2023/12/04 07:22:59;;;;;;;15.43;10.80;;;0.70;99.90;;;;;;4874285;28;95235;-32
2023/12/04 07:25:24;;;;;;;19.15;11.85;;;0.70;99.90;;;;;;4875994;28;94492;-32
2023/12/04 07:27:50;;;;;;;20.10;10.82;;;0.70;99.90;;;;;;4875901;28;95616;-29
2023/12/04 07:32:44;;;;;;;16.55;10.25;;;0.70;99.90;;;;;;4909643;28;94073;-30
2023/12/04 07:35:11;;;;;;;16.25;10.70;;;0.70;99.90;;;;;;4903380;28;93379;-30
2023/12/04 07:37:37;;;;;;;16.00;9.27;;;0.70;99.90;;;;;;4897101;28;94492;-31
2023/12/04 07:40:05;;;;;;;20.02;10.30;;;0.70;99.90;;;;;;4890872;28;95194;-32
2023/12/04 07:42:31;;;;;;;12.68;9.32;;;0.70;99.90;;;;;;4902211;28;94301;-31
2023/12/04 07:44:57;;;;;;;15.43;8.20;;;0.70;99.90;;;;;;4909945;28;93227;-31
2023/12/04 07:47:23;;;;;;;17.25;9.73;;;0.70;99.90;;;;;;4906790;28;95680;-32
2023/12/04 07:49:48;;;;;;;11.18;7.90;;;0.70;99.90;;;;;;4904573;28;96231;-31
2023/12/04 07:52:14;;;;;;;14.95;8.27;;;0.70;99.90;;;;;;4906343;28;92656;-31
2023/12/04 07:54:40;;;;;;;16.30;9.80;;;0.70;99.90;;;;;;4905782;28;93096;-32
2023/12/04 07:57:06;;;;;;;20.55;10.40;;;0.70;99.90;;;;;;4907472;28;94523;-31
2023/12/04 07:59:31;;;;;;;13.82;7.60;;;0.70;99.90;;;;;;4899173;28;94516;-31
2023/12/04 08:01:57;;;;;;;14.20;8.75;;;0.70;99.90;;;;;;4899481;28;94234;-31
2023/12/04 08:04:23;;;;;;;16.80;9.18;;;0.70;99.90;;;;;;4899263;28;92750;-32
2023/12/04 08:06:49;;;;;;;15.80;10.15;;;0.70;99.90;;;;;;4901421;28;94713;-29
2023/12/04 08:09:15;;;;;;;10.90;9.35;;;0.70;99.90;;;;;;4900639;28;94954;-31
2023/12/04 08:11:41;;;;;;;20.35;9.68;;;0.80;99.90;;;;;;4905292;28;94404;-31
2023/12/04 08:14:06;;;;;;;14.63;8.18;;;0.80;99.90;;;;;;4901923;28;93998;-32
2023/12/04 08:16:32;;;;;;;24.27;12.07;;;0.70;99.90;;;;;;4905979;28;94280;-30
2023/12/04 08:18:58;;;;;;;16.00;8.75;;;0.70;99.90;;;;;;4901445;28;94745;-33
2023/12/04 08:21:23;;;;;;;19.02;11.20;;;0.70;99.90;;;;;;4905717;28;94423;-32
2023/12/04 08:23:49;;;;;;;15.45;10.02;;;0.80;99.90;;;;;;4907387;28;93497;-31
2023/12/04 08:26:24;;;;;;;11.30;7.72;;;0.80;99.90;;;;;;4904584;28;94444;-33
2023/12/04 08:28:51;;;;;;;13.38;7.68;;;0.80;99.90;;;;;;4907469;28;94422;-31
2023/12/04 08:31:17;;;;;;;14.15;11.70;;;0.80;99.90;;;;;;4895049;28;94671;-33
2023/12/04 08:33:43;;;;;;;13.75;8.75;;;0.80;99.90;;;;;;4878792;28;93283;-32
2023/12/04 08:36:10;;;;;;;12.82;7.47;;;0.80;99.90;;;;;;4912779;28;95749;-34
2023/12/04 08:38:36;;;;;;;15.75;8.93;;;0.80;99.90;;;;;;4902335;28;94614;-30
2023/12/04 08:41:03;;;;;;;16.67;9.27;;;0.80;99.90;;;;;;4887129;28;94329;-33
2023/12/04 08:43:29;;;;;;;11.73;7.70;;;0.80;99.90;;;;;;4902550;28;92698;-29
2023/12/04 08:45:54;;;;;;;12.00;8.32;;;0.80;99.90;;;;;;4916513;28;94853;-33
2023/12/04 08:48:20;;;;;;;17.58;10.80;;;0.80;99.90;;;;;;4910631;28;94561;-30
2023/12/04 08:50:46;;;;;;;10.43;7.72;;;0.90;99.90;;;;;;4903188;28;93113;-31
2023/12/04 08:53:12;;;;;;;13.32;8.82;;;0.90;99.90;;;;;;4901453;28;92948;-32
2023/12/04 08:55:38;;;;;;;17.67;10.15;;;0.90;99.90;;;;;;4906979;28;94704;-32
2023/12/04 08:58:03;;;;;;;15.40;9.35;;;0.90;99.90;;;;;;4916024;28;95500;-31
2023/12/04 09:00:29;;;;;;;14.15;8.40;;;0.90;99.90;;;;;;4906266;28;94714;-31
2023/12/04 09:02:55;;;;;;;10.90;7.72;;;0.90;99.90;;;;;;4907127;28;93109;-32
2023/12/04 09:05:21;;;;;;;15.38;9.48;;;0.90;99.90;;;;;;4907224;28;94334;-29
2023/12/04 09:07:46;;;;;;;11.95;6.80;;;1.00;99.90;;;;;;4906776;28;93138;-34
2023/12/04 09:10:12;;;;;;;18.60;8.55;;;0.90;99.90;;;;;;4902272;28;94209;-30
2023/12/04 09:12:38;;;;;;;11.52;6.85;;;0.90;99.90;;;;;;4912186;28;94521;-31
2023/12/04 09:15:05;;;;;;;14.07;9.18;;;1.00;99.90;;;;;;4902129;28;95327;-31
2023/12/04 09:17:31;;;;;;;12.20;7.47;;;1.00;99.90;;;;;;4886423;28;97375;-31
2023/12/04 09:19:57;;;;;;;10.10;7.40;;;1.00;99.90;;;;;;4907010;28;93396;-31
2023/12/04 09:22:22;;;;;;;14.32;9.43;;;1.00;99.90;;;;;;4907897;28;93115;-32
2023/12/04 09:24:48;;;;;;;9.93;6.63;;;1.10;99.90;;;;;;4909921;28;95689;-30
2023/12/04 09:27:13;;;;;;;12.55;7.28;;;1.10;99.90;;;;;;4900427;28;95341;-32
2023/12/04 09:29:40;;;;;;;9.82;7.82;;;1.10;99.90;;;;;;4916751;28;93029;-32
2023/12/04 09:32:06;;;;;;;11.45;7.38;;;1.20;99.90;;;;;;4911061;28;93474;-32
2023/12/04 09:34:32;;;;;;;12.88;7.25;;;1.20;99.90;;;;;;4916397;28;95271;-31
2023/12/04 09:36:57;;;;;;;10.63;6.68;;;1.30;99.90;;;;;;4903069;28;94852;-34
2023/12/04 09:39:23;;;;;;;13.60;7.82;;;1.30;99.90;;;;;;4904356;28;92204;-30
2023/12/04 09:41:50;;;;;;;10.77;7.32;;;1.30;99.90;;;;;;4904870;28;93454;-30
2023/12/04 09:44:16;;;;;;;11.40;5.72;;;1.40;99.90;;;;;;4908310;28;95427;-29
2023/12/04 09:46:42;;;;;;;11.52;7.60;;;1.40;99.90;;;;;;4897680;28;94496;-30
2023/12/04 09:49:08;;;;;;;9.38;7.85;;;1.50;99.90;;;;;;4904079;28;94087;-30
2023/12/04 09:51:34;;;;;;;12.60;8.02;;;1.50;99.90;;;;;;4902883;28;94389;-33
2023/12/04 09:54:04;;;;;;;11.52;7.38;;;1.50;99.90;;;;;;4896923;28;95120;-31
2023/12/04 09:56:32;;;;;;;10.63;7.15;;;1.50;99.90;;;;;;4892543;28;95815;-33
2023/12/04 09:59:01;;;;;;;8.87;6.17;;;1.60;99.90;;;;;;4897205;28;94149;-30
2023/12/04 10:01:29;;;;;;;8.90;6.63;;;1.50;99.90;;;;;;4909560;28;92163;-32
2023/12/04 10:03:57;;;;;;;;;;;1.60;99.90;;;;;;4897416;28;94589;-32
2023/12/04 10:06:26;;;;;;;14.65;9.27;;;1.60;99.90;;;;;;4900166;28;94087;-33
2023/12/04 10:08:52;;;;;;;11.60;7.95;;;1.60;99.90;;;;;;4898099;28;92480;-31
2023/12/04 10:11:17;;;;;;;9.35;6.28;;;1.70;99.90;;;;;;4898293;28;94494;-30
2023/12/04 10:13:43;;;;;;;10.68;7.25;;;1.70;99.90;;;;;;4896427;28;95656;-32
2023/12/04 10:16:08;;;;;;;10.43;7.20;;;1.60;99.90;;;;;;4902223;28;95587;-33
2023/12/04 10:18:34;;;;;;;11.07;7.88;;;1.70;99.90;;;;;;4902756;28;93627;-32
2023/12/04 10:21:02;;;;;;;14.05;7.68;;;1.70;99.90;;;;;;4907320;28;94131;-34
2023/12/04 10:23:42;;;;;;;9.37;6.90;;;1.80;99.90;;;;;;4909404;28;94863;-31
2023/12/04 10:26:08;;;;;;;9.68;5.97;;;1.80;99.90;;;;;;4902260;28;94424;-33
2023/12/04 10:28:34;;;;;;;9.07;6.15;;;1.80;99.90;;;;;;4907381;28;93285;-30
2023/12/04 10:31:00;;;;;;;10.68;7.47;;;1.80;99.90;;;;;;4915708;28;92237;-30
2023/12/04 10:33:28;;;;;;;8.88;6.07;;;1.80;99.90;;;;;;4915592;28;94420;-31
2023/12/04 10:35:55;;;;;;;11.43;6.90;;;1.90;99.90;;;;;;4910252;28;94529;-31
2023/12/04 10:38:21;;;;;;;10.43;7.43;;;1.90;99.90;;;;;;4895785;28;93890;-30
2023/12/04 10:40:47;;;;;;;9.77;6.93;;;1.90;99.90;;;;;;4913964;28;93411;-33
2023/12/04 10:43:23;;;;;;;11.25;7.10;;;1.90;99.90;;;;;;4915656;28;95305;-31
2023/12/04 10:45:49;;;;;;;8.13;5.10;;;1.90;99.90;;;;;;4908851;28;93912;-30
2023/12/04 10:48:17;;;;;;;12.40;7.68;;;2.00;99.90;;;;;;4896784;28;94307;-33
2023/12/04 10:50:47;;;;;;;9.35;6.50;;;2.00;99.90;;;;;;4908940;28;92671;-33
2023/12/04 10:53:15;;;;;;;9.32;7.57;;;2.00;99.90;;;;;;4910054;28;94711;-30
2023/12/04 10:55:42;;;;;;;11.13;5.80;;;2.00;99.90;;;;;;4914858;28;96235;-32
2023/12/04 10:58:10;;;;;;;8.88;7.05;;;2.00;99.90;;;;;;4914219;28;94420;-31
2023/12/04 11:00:43;;;;;;;10.35;6.47;;;2.10;99.90;;;;;;4911809;28;93255;-30
2023/12/04 11:03:13;;;;;;;11.63;6.63;;;2.10;99.90;;;;;;4904161;28;97375;-31
2023/12/04 11:05:40;;;;;;;7.63;6.72;;;2.10;99.90;;;;;;4902959;28;95896;-34
2023/12/04 11:08:16;;;;;;;7.47;5.65;;;2.10;99.90;;;;;;4905452;28;93049;-31
2023/12/04 11:10:57;;;;;;;10.40;6.85;;;2.10;99.90;;;;;;4902161;28;94192;-31
2023/12/04 11:13:28;;;;;;;17.17;7.03;;;2.10;99.90;;;;;;4908485;28;94778;-32
2023/12/04 11:16:00;;;;;;;7.97;5.97;;;2.10;99.90;;;;;;4903433;28;94023;-33
2023/12/04 11:18:30;;;;;;;8.45;5.28;;;2.10;99.90;;;;;;4907863;28;93485;-31
2023/12/04 11:21:07;;;;;;;10.32;5.63;;;2.10;99.90;;;;;;4907794;28;92242;-30
2023/12/04 11:23:34;;;;;;;11.18;5.82;;;2.10;99.90;;;;;;4901776;28;94732;-29
2023/12/04 11:26:01;;;;;;;11.68;5.70;;;2.10;99.90;;;;;;4906255;28;94416;-33
2023/12/04 11:28:28;;;;;;;8.55;6.25;;;2.10;99.90;;;;;;4906072;28;95384;-30
2023/12/04 11:30:54;;;;;;;10.07;6.90;;;2.10;99.90;;;;;;4879821;28;92937;-31
2023/12/04 11:33:20;;;;;;;9.93;6.63;;;2.10;99.90;;;;;;4895649;28;94363;-34
2023/12/04 11:35:46;;;;;;;11.48;6.72;;;2.10;99.90;;;;;;4896532;28;94473;-29
2023/12/04 11:38:16;;;;;;;6.20;5.20;;;2.10;99.90;;;;;;4906089;28;93945;-30
2023/12/04 11:40:44;;;;;;;7.70;5.55;;;2.20;99.90;;;;;;4899084;28;94489;-31
2023/12/04 11:43:26;;;;;;;;;;;2.20;99.90;;;;;;4896937;28;94852;-31
2023/12/04 11:45:52;;;;;;;10.38;7.75;;;2.10;99.90;;;;;;4897744;28;95308;-30
2023/12/04 11:48:23;;;;;;;8.63;7.05;;;2.10;99.90;;;;;;4897989;28;92568;-32
2023/12/04 11:50:49;;;;;;;7.60;5.68;;;2.20;99.90;;;;;;4896776;28;93769;-30
2023/12/04 11:53:14;;;;;;;10.00;7.15;;;2.20;99.90;;;;;;4896920;28;95290;-33
2023/12/04 11:55:43;;;;;;;10.15;6.82;;;2.20;99.90;;;;;;4895875;28;96082;-32
2023/12/04 11:58:11;;;;;;;9.25;7.55;;;2.20;99.90;;;;;;4897730;28;93915;-31
2023/12/04 12:00:37;;;;;;;7.60;6.28;;;2.30;99.90;;;;;;4897387;28;93282;-31
2023/12/04 12:03:09;;;;;;;7.93;5.82;;;2.30;99.90;;;;;;4898850;28;94437;-29
2023/12/04 12:05:36;;;;;;;12.32;6.93;;;2.30;99.90;;;;;;4880153;28;95542;-31
2023/12/04 12:08:03;;;;;;;10.57;7.25;;;2.30;99.90;;;;;;4900181;28;93488;-33
2023/12/04 12:10:29;;;;;;;11.38;7.95;;;2.40;99.90;;;;;;4909289;28;92405;-33
2023/12/04 12:12:56;;;;;;;9.10;6.78;;;2.40;99.90;;;;;;4913821;28;95931;-33
2023/12/04 12:15:21;;;;;;;7.47;5.97;;;2.40;99.90;;;;;;4899898;28;94367;-30
2023/12/04 12:17:47;;;;;;;8.82;6.40;;;2.40;99.90;;;;;;4911495;28;94055;-30
2023/12/04 12:20:14;;;;;;;10.45;6.75;;;2.30;99.90;;;;;;4899287;28;93379;-32
2023/12/04 12:22:43;;;;;;;11.38;6.57;;;2.30;99.90;;;;;;4899491;28;94654;-30
2023/12/04 12:25:10;;;;;;;8.57;6.18;;;2.40;99.90;;;;;;4906630;28;95469;-30
2023/12/04 12:27:39;;;;;;;13.00;9.32;;;2.40;99.90;;;;;;4902754;28;94234;-31
2023/12/04 12:30:06;;;;;;;10.98;6.82;;;2.40;99.90;;;;;;4904175;28;93272;-32
2023/12/04 12:32:32;;;;;;;14.10;7.47;;;2.40;99.90;;;;;;4898172;28;93507;-34
2023/12/04 12:34:58;;;;;;;12.30;6.82;;;2.40;99.90;;;;;;4898292;28;94356;-32
2023/12/04 12:37:24;;;;;;;9.35;6.47;;;2.40;99.90;;;;;;4898513;28;92486;-31
2023/12/04 12:39:51;;;;;;;10.48;6.03;;;2.40;99.90;;;;;;4908770;28;93773;-32